< < Back
Terminal Aerodrome Forecast


Current Version              Previous Versions:   1  2  3  4  5  6  7  8  9  

Terminal Aerodrome Forecast

347
FTUS44 KBMX 040520
TAFTCL
TAF
KTCL 040520Z 0406/0506 17004KT P6SM VCSH BKN050
     FM041000 21010KT P6SM OVC040
     FM041500 22003KT P6SM VCSH OVC040
     FM041800 22006KT P6SM VCTS BKN050CB=

Latest METAR

032
SAUS70 KWBC 040600 RRN
MTRTCL
METAR KTCL 040553Z AUTO 19004KT 9SM CLR 22/21 A3000 RMK AO2 RAB0455E15
SLP155 P0000 60005 T02220211 10250 20222 403170222 58003


USA.gov is the U.S. government's official web portal to all federal, state and local government web resources and services.